sensor_id;sensor_type;location;lat;lon;timestamp;P1;durP1;ratioP1;P2;durP2;ratioP2
76344;SDS011;65160;50.504;3.666;2022-11-20T00:01:10;46.80;;;22.05;;
76344;SDS011;65160;50.504;3.666;2022-11-20T00:03:37;49.78;;;22.17;;
76344;SDS011;65160;50.504;3.666;2022-11-20T00:06:03;52.75;;;24.27;;
76344;SDS011;65160;50.504;3.666;2022-11-20T00:08:30;46.60;;;21.58;;
76344;SDS011;65160;50.504;3.666;2022-11-20T00:10:56;39.97;;;20.10;;
76344;SDS011;65160;50.504;3.666;2022-11-20T00:13:22;46.78;;;20.75;;
76344;SDS011;65160;50.504;3.666;2022-11-20T00:15:47;45.55;;;20.45;;
76344;SDS011;65160;50.504;3.666;2022-11-20T00:18:13;41.60;;;20.08;;
76344;SDS011;65160;50.504;3.666;2022-11-20T00:20:38;38.60;;;18.90;;
76344;SDS011;65160;50.504;3.666;2022-11-20T00:23:04;40.03;;;19.48;;
76344;SDS011;65160;50.504;3.666;2022-11-20T00:25:30;39.05;;;19.52;;
76344;SDS011;65160;50.504;3.666;2022-11-20T00:27:56;36.85;;;18.52;;
76344;SDS011;65160;50.504;3.666;2022-11-20T00:30:21;35.90;;;16.90;;
76344;SDS011;65160;50.504;3.666;2022-11-20T00:32:47;36.45;;;16.55;;
76344;SDS011;65160;50.504;3.666;2022-11-20T00:35:12;32.05;;;15.45;;
76344;SDS011;65160;50.504;3.666;2022-11-20T00:37:37;34.80;;;16.88;;
76344;SDS011;65160;50.504;3.666;2022-11-20T00:40:03;35.42;;;17.27;;
76344;SDS011;65160;50.504;3.666;2022-11-20T00:42:29;34.75;;;17.65;;
76344;SDS011;65160;50.504;3.666;2022-11-20T00:44:55;33.45;;;17.17;;
76344;SDS011;65160;50.504;3.666;2022-11-20T00:47:21;36.47;;;17.27;;
76344;SDS011;65160;50.504;3.666;2022-11-20T00:49:46;32.47;;;15.95;;
76344;SDS011;65160;50.504;3.666;2022-11-20T00:52:12;34.60;;;14.68;;
76344;SDS011;65160;50.504;3.666;2022-11-20T00:54:37;31.83;;;16.85;;
76344;SDS011;65160;50.504;3.666;2022-11-20T00:57:03;30.92;;;16.20;;
76344;SDS011;65160;50.504;3.666;2022-11-20T00:59:28;33.33;;;16.00;;
76344;SDS011;65160;50.504;3.666;2022-11-20T01:01:53;40.80;;;17.88;;
76344;SDS011;65160;50.504;3.666;2022-11-20T01:04:19;37.63;;;17.58;;
76344;SDS011;65160;50.504;3.666;2022-11-20T01:06:44;47.33;;;20.92;;
76344;SDS011;65160;50.504;3.666;2022-11-20T01:09:11;40.08;;;19.23;;
76344;SDS011;65160;50.504;3.666;2022-11-20T01:11:39;43.92;;;19.75;;
76344;SDS011;65160;50.504;3.666;2022-11-20T01:14:09;45.60;;;20.83;;
76344;SDS011;65160;50.504;3.666;2022-11-20T01:16:37;42.55;;;19.42;;
76344;SDS011;65160;50.504;3.666;2022-11-20T01:19:06;42.15;;;19.85;;
76344;SDS011;65160;50.504;3.666;2022-11-20T01:21:35;44.05;;;19.13;;
76344;SDS011;65160;50.504;3.666;2022-11-20T01:24:02;46.78;;;19.48;;
76344;SDS011;65160;50.504;3.666;2022-11-20T01:26:30;45.55;;;19.92;;
76344;SDS011;65160;50.504;3.666;2022-11-20T01:28:58;46.67;;;20.60;;
76344;SDS011;65160;50.504;3.666;2022-11-20T01:31:28;44.33;;;19.45;;
76344;SDS011;65160;50.504;3.666;2022-11-20T01:33:56;39.63;;;18.48;;
76344;SDS011;65160;50.504;3.666;2022-11-20T01:36:24;43.72;;;19.02;;
76344;SDS011;65160;50.504;3.666;2022-11-20T01:38:51;44.58;;;20.83;;
76344;SDS011;65160;50.504;3.666;2022-11-20T01:41:18;47.17;;;20.83;;
76344;SDS011;65160;50.504;3.666;2022-11-20T01:44:03;44.28;;;21.05;;
76344;SDS011;65160;50.504;3.666;2022-11-20T01:46:30;52.75;;;21.45;;
76344;SDS011;65160;50.504;3.666;2022-11-20T01:48:59;53.13;;;22.05;;
76344;SDS011;65160;50.504;3.666;2022-11-20T01:51:31;49.88;;;20.42;;
76344;SDS011;65160;50.504;3.666;2022-11-20T01:54:05;50.35;;;21.08;;
76344;SDS011;65160;50.504;3.666;2022-11-20T01:56:37;47.58;;;19.85;;
76344;SDS011;65160;50.504;3.666;2022-11-20T01:59:05;46.40;;;19.77;;
76344;SDS011;65160;50.504;3.666;2022-11-20T02:01:33;45.75;;;19.42;;
76344;SDS011;65160;50.504;3.666;2022-11-20T02:04:00;48.40;;;18.05;;
76344;SDS011;65160;50.504;3.666;2022-11-20T02:06:27;48.97;;;19.77;;
76344;SDS011;65160;50.504;3.666;2022-11-20T02:08:55;53.78;;;21.55;;
76344;SDS011;65160;50.504;3.666;2022-11-20T02:11:21;49.85;;;19.42;;
76344;SDS011;65160;50.504;3.666;2022-11-20T02:13:47;52.15;;;21.65;;
76344;SDS011;65160;50.504;3.666;2022-11-20T02:16:19;47.60;;;19.30;;
76344;SDS011;65160;50.504;3.666;2022-11-20T02:18:48;51.40;;;20.27;;
76344;SDS011;65160;50.504;3.666;2022-11-20T02:21:32;44.78;;;19.92;;
76344;SDS011;65160;50.504;3.666;2022-11-20T02:24:05;41.70;;;18.65;;
76344;SDS011;65160;50.504;3.666;2022-11-20T02:26:41;43.78;;;19.98;;
76344;SDS011;65160;50.504;3.666;2022-11-20T02:29:26;42.03;;;19.00;;
76344;SDS011;65160;50.504;3.666;2022-11-20T02:31:57;42.78;;;19.25;;
76344;SDS011;65160;50.504;3.666;2022-11-20T02:34:25;49.50;;;20.40;;
76344;SDS011;65160;50.504;3.666;2022-11-20T02:36:51;47.78;;;18.67;;
76344;SDS011;65160;50.504;3.666;2022-11-20T02:39:17;52.25;;;19.30;;
76344;SDS011;65160;50.504;3.666;2022-11-20T02:41:45;46.83;;;19.20;;
76344;SDS011;65160;50.504;3.666;2022-11-20T02:44:11;47.45;;;21.60;;
76344;SDS011;65160;50.504;3.666;2022-11-20T02:46:37;48.75;;;21.05;;
76344;SDS011;65160;50.504;3.666;2022-11-20T02:49:03;45.75;;;21.05;;
76344;SDS011;65160;50.504;3.666;2022-11-20T02:51:29;39.47;;;17.92;;
76344;SDS011;65160;50.504;3.666;2022-11-20T02:53:55;152.40;;;83.70;;
76344;SDS011;65160;50.504;3.666;2022-11-20T02:56:21;61.15;;;29.55;;
76344;SDS011;65160;50.504;3.666;2022-11-20T02:58:47;54.13;;;22.10;;
76344;SDS011;65160;50.504;3.666;2022-11-20T03:01:12;48.80;;;18.08;;
76344;SDS011;65160;50.504;3.666;2022-11-20T03:03:38;45.83;;;18.67;;
76344;SDS011;65160;50.504;3.666;2022-11-20T03:06:04;42.90;;;19.02;;
76344;SDS011;65160;50.504;3.666;2022-11-20T03:08:29;40.53;;;17.30;;
76344;SDS011;65160;50.504;3.666;2022-11-20T03:10:55;49.00;;;20.05;;
76344;SDS011;65160;50.504;3.666;2022-11-20T03:13:20;50.45;;;19.88;;
76344;SDS011;65160;50.504;3.666;2022-11-20T03:15:46;44.33;;;19.15;;
76344;SDS011;65160;50.504;3.666;2022-11-20T03:18:11;47.28;;;18.63;;
76344;SDS011;65160;50.504;3.666;2022-11-20T03:20:38;45.70;;;17.98;;
76344;SDS011;65160;50.504;3.666;2022-11-20T03:23:04;41.13;;;18.00;;
76344;SDS011;65160;50.504;3.666;2022-11-20T03:25:30;45.63;;;19.13;;
76344;SDS011;65160;50.504;3.666;2022-11-20T03:27:55;43.45;;;18.02;;
76344;SDS011;65160;50.504;3.666;2022-11-20T03:30:21;46.25;;;19.25;;
76344;SDS011;65160;50.504;3.666;2022-11-20T03:32:46;43.13;;;18.63;;
76344;SDS011;65160;50.504;3.666;2022-11-20T03:35:12;46.42;;;19.88;;
76344;SDS011;65160;50.504;3.666;2022-11-20T03:37:37;42.70;;;19.25;;
76344;SDS011;65160;50.504;3.666;2022-11-20T03:40:03;43.70;;;19.58;;
76344;SDS011;65160;50.504;3.666;2022-11-20T03:42:29;42.78;;;18.90;;
76344;SDS011;65160;50.504;3.666;2022-11-20T03:45:13;47.10;;;20.98;;
76344;SDS011;65160;50.504;3.666;2022-11-20T03:47:39;44.20;;;18.33;;
76344;SDS011;65160;50.504;3.666;2022-11-20T03:50:05;43.95;;;19.85;;
76344;SDS011;65160;50.504;3.666;2022-11-20T03:52:31;37.55;;;18.20;;
76344;SDS011;65160;50.504;3.666;2022-11-20T03:54:56;47.08;;;19.30;;
76344;SDS011;65160;50.504;3.666;2022-11-20T03:57:22;43.40;;;19.45;;
76344;SDS011;65160;50.504;3.666;2022-11-20T03:59:47;45.08;;;20.65;;
76344;SDS011;65160;50.504;3.666;2022-11-20T04:02:12;43.92;;;18.48;;
76344;SDS011;65160;50.504;3.666;2022-11-20T04:04:38;41.63;;;18.65;;
76344;SDS011;65160;50.504;3.666;2022-11-20T04:07:03;45.22;;;19.05;;
76344;SDS011;65160;50.504;3.666;2022-11-20T04:09:29;42.00;;;17.73;;
76344;SDS011;65160;50.504;3.666;2022-11-20T04:11:54;46.35;;;19.35;;
76344;SDS011;65160;50.504;3.666;2022-11-20T04:14:19;41.83;;;18.35;;
76344;SDS011;65160;50.504;3.666;2022-11-20T04:16:45;42.65;;;18.80;;
76344;SDS011;65160;50.504;3.666;2022-11-20T04:19:11;45.42;;;19.30;;
76344;SDS011;65160;50.504;3.666;2022-11-20T04:21:38;51.95;;;20.05;;
76344;SDS011;65160;50.504;3.666;2022-11-20T04:24:04;45.40;;;19.80;;
76344;SDS011;65160;50.504;3.666;2022-11-20T04:26:30;43.10;;;19.45;;
76344;SDS011;65160;50.504;3.666;2022-11-20T04:28:56;43.05;;;19.95;;
76344;SDS011;65160;50.504;3.666;2022-11-20T04:31:23;43.33;;;20.45;;
76344;SDS011;65160;50.504;3.666;2022-11-20T04:33:50;52.00;;;20.45;;
76344;SDS011;65160;50.504;3.666;2022-11-20T04:38:43;42.80;;;19.67;;
76344;SDS011;65160;50.504;3.666;2022-11-20T04:41:18;43.20;;;21.08;;
76344;SDS011;65160;50.504;3.666;2022-11-20T04:43:46;41.75;;;18.55;;
76344;SDS011;65160;50.504;3.666;2022-11-20T04:46:13;37.40;;;17.83;;
76344;SDS011;65160;50.504;3.666;2022-11-20T04:48:39;44.10;;;20.00;;
76344;SDS011;65160;50.504;3.666;2022-11-20T04:51:04;43.35;;;18.88;;
76344;SDS011;65160;50.504;3.666;2022-11-20T04:53:30;39.97;;;19.40;;
76344;SDS011;65160;50.504;3.666;2022-11-20T04:55:59;41.80;;;19.13;;
76344;SDS011;65160;50.504;3.666;2022-11-20T04:58:28;45.33;;;19.30;;
76344;SDS011;65160;50.504;3.666;2022-11-20T05:01:00;45.88;;;19.83;;
76344;SDS011;65160;50.504;3.666;2022-11-20T05:03:26;41.72;;;18.52;;
76344;SDS011;65160;50.504;3.666;2022-11-20T05:05:52;40.60;;;18.80;;
76344;SDS011;65160;50.504;3.666;2022-11-20T05:08:17;44.70;;;20.10;;
76344;SDS011;65160;50.504;3.666;2022-11-20T05:10:43;43.25;;;19.52;;
76344;SDS011;65160;50.504;3.666;2022-11-20T05:13:08;43.85;;;19.20;;
76344;SDS011;65160;50.504;3.666;2022-11-20T05:15:33;43.95;;;18.38;;
76344;SDS011;65160;50.504;3.666;2022-11-20T05:17:59;45.67;;;19.80;;
76344;SDS011;65160;50.504;3.666;2022-11-20T05:20:24;42.60;;;18.25;;
76344;SDS011;65160;50.504;3.666;2022-11-20T05:22:49;41.63;;;17.95;;
76344;SDS011;65160;50.504;3.666;2022-11-20T05:25:15;45.75;;;18.50;;
76344;SDS011;65160;50.504;3.666;2022-11-20T05:27:40;42.85;;;20.08;;
76344;SDS011;65160;50.504;3.666;2022-11-20T05:30:06;42.78;;;18.13;;
76344;SDS011;65160;50.504;3.666;2022-11-20T05:32:32;38.97;;;17.77;;
76344;SDS011;65160;50.504;3.666;2022-11-20T05:34:58;45.60;;;19.52;;
76344;SDS011;65160;50.504;3.666;2022-11-20T05:37:23;46.63;;;18.90;;
76344;SDS011;65160;50.504;3.666;2022-11-20T05:39:48;59.10;;;21.00;;
76344;SDS011;65160;50.504;3.666;2022-11-20T05:42:14;47.28;;;19.73;;
76344;SDS011;65160;50.504;3.666;2022-11-20T05:44:55;58.88;;;23.08;;
76344;SDS011;65160;50.504;3.666;2022-11-20T05:47:21;44.38;;;19.73;;
76344;SDS011;65160;50.504;3.666;2022-11-20T05:49:46;54.75;;;20.38;;
76344;SDS011;65160;50.504;3.666;2022-11-20T05:52:11;53.33;;;21.90;;
76344;SDS011;65160;50.504;3.666;2022-11-20T05:54:37;54.40;;;21.15;;
76344;SDS011;65160;50.504;3.666;2022-11-20T05:57:02;61.15;;;21.48;;
76344;SDS011;65160;50.504;3.666;2022-11-20T05:59:27;46.85;;;20.13;;
76344;SDS011;65160;50.504;3.666;2022-11-20T06:01:53;58.35;;;21.90;;
76344;SDS011;65160;50.504;3.666;2022-11-20T06:04:18;53.65;;;21.50;;
76344;SDS011;65160;50.504;3.666;2022-11-20T06:06:44;55.08;;;20.80;;
76344;SDS011;65160;50.504;3.666;2022-11-20T06:09:09;57.42;;;22.23;;
76344;SDS011;65160;50.504;3.666;2022-11-20T06:11:34;56.85;;;21.60;;
76344;SDS011;65160;50.504;3.666;2022-11-20T06:14:00;57.28;;;21.77;;
76344;SDS011;65160;50.504;3.666;2022-11-20T06:16:25;63.78;;;22.23;;
76344;SDS011;65160;50.504;3.666;2022-11-20T06:18:51;57.13;;;19.42;;
76344;SDS011;65160;50.504;3.666;2022-11-20T06:21:18;52.05;;;20.90;;
76344;SDS011;65160;50.504;3.666;2022-11-20T06:23:45;49.50;;;20.30;;
76344;SDS011;65160;50.504;3.666;2022-11-20T06:26:11;53.38;;;20.63;;
76344;SDS011;65160;50.504;3.666;2022-11-20T06:28:41;51.78;;;21.45;;
76344;SDS011;65160;50.504;3.666;2022-11-20T06:31:07;56.17;;;22.85;;
76344;SDS011;65160;50.504;3.666;2022-11-20T06:33:34;57.72;;;22.42;;
76344;SDS011;65160;50.504;3.666;2022-11-20T06:36:00;50.22;;;20.33;;
76344;SDS011;65160;50.504;3.666;2022-11-20T06:38:27;69.70;;;22.60;;
76344;SDS011;65160;50.504;3.666;2022-11-20T06:40:53;60.13;;;23.55;;
76344;SDS011;65160;50.504;3.666;2022-11-20T06:43:19;58.58;;;24.30;;
76344;SDS011;65160;50.504;3.666;2022-11-20T06:45:45;57.13;;;21.27;;
76344;SDS011;65160;50.504;3.666;2022-11-20T06:48:11;101.35;;;25.50;;
76344;SDS011;65160;50.504;3.666;2022-11-20T06:50:37;76.93;;;23.00;;
76344;SDS011;65160;50.504;3.666;2022-11-20T06:53:03;57.53;;;19.13;;
76344;SDS011;65160;50.504;3.666;2022-11-20T06:55:29;50.60;;;20.52;;
76344;SDS011;65160;50.504;3.666;2022-11-20T06:57:56;64.43;;;20.15;;
76344;SDS011;65160;50.504;3.666;2022-11-20T07:00:21;62.55;;;21.90;;
76344;SDS011;65160;50.504;3.666;2022-11-20T07:02:47;51.92;;;18.17;;
76344;SDS011;65160;50.504;3.666;2022-11-20T07:05:12;67.20;;;20.42;;
76344;SDS011;65160;50.504;3.666;2022-11-20T07:07:37;99.78;;;21.90;;
76344;SDS011;65160;50.504;3.666;2022-11-20T07:10:03;70.15;;;21.58;;
76344;SDS011;65160;50.504;3.666;2022-11-20T07:12:29;64.10;;;19.92;;
76344;SDS011;65160;50.504;3.666;2022-11-20T07:14:54;70.57;;;20.30;;
76344;SDS011;65160;50.504;3.666;2022-11-20T07:17:20;85.05;;;22.23;;
76344;SDS011;65160;50.504;3.666;2022-11-20T07:19:45;46.05;;;18.15;;
76344;SDS011;65160;50.504;3.666;2022-11-20T07:22:10;48.65;;;20.10;;
76344;SDS011;65160;50.504;3.666;2022-11-20T07:24:36;86.30;;;23.27;;
76344;SDS011;65160;50.504;3.666;2022-11-20T07:27:01;53.03;;;18.75;;
76344;SDS011;65160;50.504;3.666;2022-11-20T07:29:27;79.93;;;24.83;;
76344;SDS011;65160;50.504;3.666;2022-11-20T07:31:52;44.53;;;18.63;;
76344;SDS011;65160;50.504;3.666;2022-11-20T07:34:17;95.70;;;22.67;;
76344;SDS011;65160;50.504;3.666;2022-11-20T07:36:43;43.97;;;18.00;;
76344;SDS011;65160;50.504;3.666;2022-11-20T07:39:08;46.78;;;18.33;;
76344;SDS011;65160;50.504;3.666;2022-11-20T07:41:33;41.13;;;17.20;;
76344;SDS011;65160;50.504;3.666;2022-11-20T07:43:59;38.58;;;17.77;;
76344;SDS011;65160;50.504;3.666;2022-11-20T07:46:24;40.55;;;16.90;;
76344;SDS011;65160;50.504;3.666;2022-11-20T07:48:50;32.42;;;16.52;;
76344;SDS011;65160;50.504;3.666;2022-11-20T07:51:15;37.88;;;16.95;;
76344;SDS011;65160;50.504;3.666;2022-11-20T07:53:41;34.85;;;15.77;;
76344;SDS011;65160;50.504;3.666;2022-11-20T07:56:06;32.13;;;15.50;;
76344;SDS011;65160;50.504;3.666;2022-11-20T07:58:32;37.97;;;16.05;;
76344;SDS011;65160;50.504;3.666;2022-11-20T08:00:58;31.90;;;15.07;;
76344;SDS011;65160;50.504;3.666;2022-11-20T08:03:27;32.90;;;14.95;;
76344;SDS011;65160;50.504;3.666;2022-11-20T08:05:53;31.60;;;15.13;;
76344;SDS011;65160;50.504;3.666;2022-11-20T08:08:18;32.92;;;14.40;;
76344;SDS011;65160;50.504;3.666;2022-11-20T08:10:44;26.73;;;13.30;;
76344;SDS011;65160;50.504;3.666;2022-11-20T08:13:09;24.95;;;12.85;;
76344;SDS011;65160;50.504;3.666;2022-11-20T08:15:53;29.95;;;12.65;;
76344;SDS011;65160;50.504;3.666;2022-11-20T08:18:18;25.38;;;12.13;;
76344;SDS011;65160;50.504;3.666;2022-11-20T08:20:44;21.35;;;10.85;;
76344;SDS011;65160;50.504;3.666;2022-11-20T08:23:10;26.33;;;11.57;;
76344;SDS011;65160;50.504;3.666;2022-11-20T08:25:37;26.33;;;11.35;;
76344;SDS011;65160;50.504;3.666;2022-11-20T08:28:04;20.48;;;10.65;;
76344;SDS011;65160;50.504;3.666;2022-11-20T08:30:31;20.50;;;10.13;;
76344;SDS011;65160;50.504;3.666;2022-11-20T08:33:04;18.27;;;10.25;;
76344;SDS011;65160;50.504;3.666;2022-11-20T08:35:36;19.98;;;11.20;;
76344;SDS011;65160;50.504;3.666;2022-11-20T08:38:03;22.42;;;10.60;;
76344;SDS011;65160;50.504;3.666;2022-11-20T08:40:29;18.25;;;8.27;;
76344;SDS011;65160;50.504;3.666;2022-11-20T08:42:54;16.10;;;8.30;;
76344;SDS011;65160;50.504;3.666;2022-11-20T08:45:20;20.23;;;9.00;;
76344;SDS011;65160;50.504;3.666;2022-11-20T08:47:45;19.08;;;7.30;;
76344;SDS011;65160;50.504;3.666;2022-11-20T08:50:12;14.43;;;7.32;;
76344;SDS011;65160;50.504;3.666;2022-11-20T08:52:39;13.70;;;7.85;;
76344;SDS011;65160;50.504;3.666;2022-11-20T08:55:05;14.40;;;7.43;;
76344;SDS011;65160;50.504;3.666;2022-11-20T08:57:34;11.23;;;5.43;;
76344;SDS011;65160;50.504;3.666;2022-11-20T09:00:00;11.82;;;6.10;;
76344;SDS011;65160;50.504;3.666;2022-11-20T09:02:27;12.48;;;6.38;;
76344;SDS011;65160;50.504;3.666;2022-11-20T09:04:53;12.93;;;6.40;;
76344;SDS011;65160;50.504;3.666;2022-11-20T09:07:18;9.85;;;5.38;;
76344;SDS011;65160;50.504;3.666;2022-11-20T09:09:44;12.00;;;5.68;;
76344;SDS011;65160;50.504;3.666;2022-11-20T09:12:10;10.55;;;5.43;;
76344;SDS011;65160;50.504;3.666;2022-11-20T09:14:35;11.68;;;5.72;;
76344;SDS011;65160;50.504;3.666;2022-11-20T09:17:00;12.02;;;4.85;;
76344;SDS011;65160;50.504;3.666;2022-11-20T09:19:26;12.95;;;4.95;;
76344;SDS011;65160;50.504;3.666;2022-11-20T09:21:51;10.90;;;4.47;;
76344;SDS011;65160;50.504;3.666;2022-11-20T09:24:17;11.27;;;4.65;;
76344;SDS011;65160;50.504;3.666;2022-11-20T09:26:43;9.32;;;4.18;;
76344;SDS011;65160;50.504;3.666;2022-11-20T09:29:24;10.95;;;4.82;;
76344;SDS011;65160;50.504;3.666;2022-11-20T09:31:49;11.70;;;4.45;;
76344;SDS011;65160;50.504;3.666;2022-11-20T09:34:15;8.38;;;3.50;;
76344;SDS011;65160;50.504;3.666;2022-11-20T09:36:40;11.30;;;4.55;;
76344;SDS011;65160;50.504;3.666;2022-11-20T09:39:06;10.43;;;4.20;;
76344;SDS011;65160;50.504;3.666;2022-11-20T09:44:40;9.98;;;3.25;;
76344;SDS011;65160;50.504;3.666;2022-11-20T09:55:28;9.35;;;3.40;;
76344;SDS011;65160;50.504;3.666;2022-11-20T09:57:55;7.82;;;3.38;;
76344;SDS011;65160;50.504;3.666;2022-11-20T10:00:23;8.77;;;4.47;;
76344;SDS011;65160;50.504;3.666;2022-11-20T10:03:00;9.23;;;3.40;;
76344;SDS011;65160;50.504;3.666;2022-11-20T10:05:30;13.95;;;4.20;;
76344;SDS011;65160;50.504;3.666;2022-11-20T10:08:21;7.78;;;3.10;;
76344;SDS011;65160;50.504;3.666;2022-11-20T10:10:51;7.07;;;2.70;;
76344;SDS011;65160;50.504;3.666;2022-11-20T10:13:25;8.48;;;3.22;;
76344;SDS011;65160;50.504;3.666;2022-11-20T10:16:03;6.43;;;3.08;;
76344;SDS011;65160;50.504;3.666;2022-11-20T10:19:07;6.28;;;3.08;;
76344;SDS011;65160;50.504;3.666;2022-11-20T10:29:36;4.78;;;2.67;;
76344;SDS011;65160;50.504;3.666;2022-11-20T10:32:11;8.13;;;2.90;;
76344;SDS011;65160;50.504;3.666;2022-11-20T10:34:49;10.25;;;3.13;;
76344;SDS011;65160;50.504;3.666;2022-11-20T10:37:19;5.97;;;2.35;;
76344;SDS011;65160;50.504;3.666;2022-11-20T10:39:53;6.45;;;3.15;;
76344;SDS011;65160;50.504;3.666;2022-11-20T10:42:32;5.68;;;2.75;;
76344;SDS011;65160;50.504;3.666;2022-11-20T10:45:02;8.70;;;2.70;;
76344;SDS011;65160;50.504;3.666;2022-11-20T10:47:40;5.60;;;2.50;;
76344;SDS011;65160;50.504;3.666;2022-11-20T10:50:05;10.50;;;3.28;;
76344;SDS011;65160;50.504;3.666;2022-11-20T10:58:10;6.80;;;2.67;;
76344;SDS011;65160;50.504;3.666;2022-11-20T11:01:04;8.07;;;3.30;;
76344;SDS011;65160;50.504;3.666;2022-11-20T11:03:31;5.70;;;2.70;;
76344;SDS011;65160;50.504;3.666;2022-11-20T11:06:06;8.10;;;3.28;;
76344;SDS011;65160;50.504;3.666;2022-11-20T11:08:38;8.33;;;3.07;;
76344;SDS011;65160;50.504;3.666;2022-11-20T11:11:13;7.53;;;3.08;;
76344;SDS011;65160;50.504;3.666;2022-11-20T11:13:46;7.40;;;2.78;;
76344;SDS011;65160;50.504;3.666;2022-11-20T11:16:22;9.38;;;3.15;;
76344;SDS011;65160;50.504;3.666;2022-11-20T11:18:49;8.25;;;2.67;;
76344;SDS011;65160;50.504;3.666;2022-11-20T11:21:21;8.75;;;2.47;;
76344;SDS011;65160;50.504;3.666;2022-11-20T11:23:48;8.15;;;2.53;;
76344;SDS011;65160;50.504;3.666;2022-11-20T11:26:24;9.25;;;2.55;;
76344;SDS011;65160;50.504;3.666;2022-11-20T11:31:23;8.57;;;2.70;;
76344;SDS011;65160;50.504;3.666;2022-11-20T11:33:49;8.20;;;2.63;;
76344;SDS011;65160;50.504;3.666;2022-11-20T11:36:19;7.00;;;2.58;;
76344;SDS011;65160;50.504;3.666;2022-11-20T11:38:48;6.88;;;2.88;;
76344;SDS011;65160;50.504;3.666;2022-11-20T11:41:19;8.60;;;3.55;;
76344;SDS011;65160;50.504;3.666;2022-11-20T11:43:51;8.05;;;3.95;;
76344;SDS011;65160;50.504;3.666;2022-11-20T11:46:37;10.88;;;3.42;;
76344;SDS011;65160;50.504;3.666;2022-11-20T11:51:36;9.15;;;3.05;;
76344;SDS011;65160;50.504;3.666;2022-11-20T11:54:17;7.50;;;3.20;;
76344;SDS011;65160;50.504;3.666;2022-11-20T11:56:47;10.32;;;4.00;;
76344;SDS011;65160;50.504;3.666;2022-11-20T11:59:15;8.40;;;3.92;;
76344;SDS011;65160;50.504;3.666;2022-11-20T12:01:57;7.68;;;3.97;;
76344;SDS011;65160;50.504;3.666;2022-11-20T12:04:46;9.38;;;3.90;;
76344;SDS011;65160;50.504;3.666;2022-11-20T12:07:25;8.77;;;3.40;;
76344;SDS011;65160;50.504;3.666;2022-11-20T12:10:55;9.05;;;3.85;;
76344;SDS011;65160;50.504;3.666;2022-11-20T12:15:40;9.55;;;4.72;;
76344;SDS011;65160;50.504;3.666;2022-11-20T12:18:13;14.10;;;4.72;;
76344;SDS011;65160;50.504;3.666;2022-11-20T12:20:41;11.63;;;5.47;;
76344;SDS011;65160;50.504;3.666;2022-11-20T12:23:38;9.77;;;5.20;;
76344;SDS011;65160;50.504;3.666;2022-11-20T12:26:13;10.98;;;6.57;;
76344;SDS011;65160;50.504;3.666;2022-11-20T12:29:06;13.57;;;7.05;;
76344;SDS011;65160;50.504;3.666;2022-11-20T12:31:52;11.85;;;6.32;;
76344;SDS011;65160;50.504;3.666;2022-11-20T12:39:48;10.60;;;4.60;;
76344;SDS011;65160;50.504;3.666;2022-11-20T12:45:17;8.60;;;3.85;;
76344;SDS011;65160;50.504;3.666;2022-11-20T12:50:46;10.25;;;3.80;;
76344;SDS011;65160;50.504;3.666;2022-11-20T13:01:55;5.65;;;2.90;;
76344;SDS011;65160;50.504;3.666;2022-11-20T13:07:18;5.05;;;2.53;;
76344;SDS011;65160;50.504;3.666;2022-11-20T13:09:46;6.18;;;2.97;;
76344;SDS011;65160;50.504;3.666;2022-11-20T13:17:48;6.55;;;3.30;;
76344;SDS011;65160;50.504;3.666;2022-11-20T13:20:19;6.60;;;3.55;;
76344;SDS011;65160;50.504;3.666;2022-11-20T13:22:49;6.05;;;2.92;;
76344;SDS011;65160;50.504;3.666;2022-11-20T13:25:26;5.78;;;2.97;;
76344;SDS011;65160;50.504;3.666;2022-11-20T13:27:58;7.50;;;3.47;;
76344;SDS011;65160;50.504;3.666;2022-11-20T13:30:28;6.35;;;3.45;;
76344;SDS011;65160;50.504;3.666;2022-11-20T13:35:42;6.07;;;3.50;;
76344;SDS011;65160;50.504;3.666;2022-11-20T13:38:20;6.72;;;3.90;;
76344;SDS011;65160;50.504;3.666;2022-11-20T13:43:21;5.88;;;3.85;;
76344;SDS011;65160;50.504;3.666;2022-11-20T13:46:06;6.47;;;3.42;;
76344;SDS011;65160;50.504;3.666;2022-11-20T13:48:33;6.20;;;3.25;;
76344;SDS011;65160;50.504;3.666;2022-11-20T14:02:13;11.20;;;5.05;;
76344;SDS011;65160;50.504;3.666;2022-11-20T14:04:45;15.40;;;5.45;;
76344;SDS011;65160;50.504;3.666;2022-11-20T14:07:13;40.50;;;11.02;;
76344;SDS011;65160;50.504;3.666;2022-11-20T14:09:48;84.50;;;33.08;;
76344;SDS011;65160;50.504;3.666;2022-11-20T14:12:16;6.88;;;2.83;;
76344;SDS011;65160;50.504;3.666;2022-11-20T14:14:52;6.05;;;2.60;;
76344;SDS011;65160;50.504;3.666;2022-11-20T14:17:19;5.60;;;2.45;;
76344;SDS011;65160;50.504;3.666;2022-11-20T14:19:50;4.47;;;2.25;;
76344;SDS011;65160;50.504;3.666;2022-11-20T14:22:19;7.20;;;3.03;;
76344;SDS011;65160;50.504;3.666;2022-11-20T14:24:59;7.43;;;2.70;;
76344;SDS011;65160;50.504;3.666;2022-11-20T14:27:44;8.30;;;2.55;;
76344;SDS011;65160;50.504;3.666;2022-11-20T14:30:17;5.70;;;2.97;;
76344;SDS011;65160;50.504;3.666;2022-11-20T14:32:45;6.60;;;3.17;;
76344;SDS011;65160;50.504;3.666;2022-11-20T14:35:20;5.63;;;3.08;;
76344;SDS011;65160;50.504;3.666;2022-11-20T14:37:49;6.70;;;3.42;;
76344;SDS011;65160;50.504;3.666;2022-11-20T14:40:22;8.27;;;4.18;;
76344;SDS011;65160;50.504;3.666;2022-11-20T14:42:49;5.25;;;2.38;;
76344;SDS011;65160;50.504;3.666;2022-11-20T14:45:15;5.25;;;2.50;;
76344;SDS011;65160;50.504;3.666;2022-11-20T14:47:41;6.35;;;2.88;;
76344;SDS011;65160;50.504;3.666;2022-11-20T14:50:12;11.23;;;3.80;;
76344;SDS011;65160;50.504;3.666;2022-11-20T14:52:56;8.48;;;3.10;;
76344;SDS011;65160;50.504;3.666;2022-11-20T14:55:36;7.47;;;3.50;;
76344;SDS011;65160;50.504;3.666;2022-11-20T14:58:19;8.13;;;3.08;;
76344;SDS011;65160;50.504;3.666;2022-11-20T15:00:56;7.63;;;3.53;;
76344;SDS011;65160;50.504;3.666;2022-11-20T15:03:34;7.03;;;3.50;;
76344;SDS011;65160;50.504;3.666;2022-11-20T15:06:01;7.57;;;2.80;;
76344;SDS011;65160;50.504;3.666;2022-11-20T15:08:27;9.40;;;3.03;;
76344;SDS011;65160;50.504;3.666;2022-11-20T15:10:53;6.22;;;3.55;;
76344;SDS011;65160;50.504;3.666;2022-11-20T15:13:29;12.30;;;3.58;;
76344;SDS011;65160;50.504;3.666;2022-11-20T15:15:57;10.15;;;3.63;;
76344;SDS011;65160;50.504;3.666;2022-11-20T15:18:27;11.52;;;4.28;;
76344;SDS011;65160;50.504;3.666;2022-11-20T15:23:21;7.03;;;3.35;;
76344;SDS011;65160;50.504;3.666;2022-11-20T15:25:47;12.38;;;3.75;;
76344;SDS011;65160;50.504;3.666;2022-11-20T15:28:17;9.02;;;4.15;;
76344;SDS011;65160;50.504;3.666;2022-11-20T15:30:44;11.52;;;3.70;;
76344;SDS011;65160;50.504;3.666;2022-11-20T15:33:11;13.23;;;4.63;;
76344;SDS011;65160;50.504;3.666;2022-11-20T15:35:37;10.43;;;4.22;;
76344;SDS011;65160;50.504;3.666;2022-11-20T15:38:03;13.27;;;4.38;;
76344;SDS011;65160;50.504;3.666;2022-11-20T15:40:28;9.68;;;4.13;;
76344;SDS011;65160;50.504;3.666;2022-11-20T15:42:53;9.38;;;4.22;;
76344;SDS011;65160;50.504;3.666;2022-11-20T15:45:29;10.48;;;4.47;;
76344;SDS011;65160;50.504;3.666;2022-11-20T15:47:59;8.35;;;4.00;;
76344;SDS011;65160;50.504;3.666;2022-11-20T15:50:27;11.52;;;4.18;;
76344;SDS011;65160;50.504;3.666;2022-11-20T15:52:58;17.58;;;7.15;;
76344;SDS011;65160;50.504;3.666;2022-11-20T15:55:23;13.05;;;4.57;;
76344;SDS011;65160;50.504;3.666;2022-11-20T15:57:49;11.77;;;4.57;;
76344;SDS011;65160;50.504;3.666;2022-11-20T16:00:14;10.40;;;4.70;;
76344;SDS011;65160;50.504;3.666;2022-11-20T16:02:40;10.27;;;4.60;;